sensor_id;sensor_type;location;lat;lon;timestamp;P1;durP1;ratioP1;P2;durP2;ratioP2
9392;SDS011;4736;52.508;13.422;2023-02-28T00:00:26;6.93;;;6.30;;
9392;SDS011;4736;52.508;13.422;2023-02-28T00:03:29;5.63;;;5.30;;
9392;SDS011;4736;52.508;13.422;2023-02-28T00:06:36;6.43;;;5.73;;
9392;SDS011;4736;52.508;13.422;2023-02-28T00:09:39;6.23;;;5.87;;
9392;SDS011;4736;52.508;13.422;2023-02-28T00:12:44;6.47;;;6.00;;
9392;SDS011;4736;52.508;13.422;2023-02-28T00:15:47;6.90;;;5.77;;
9392;SDS011;4736;52.508;13.422;2023-02-28T00:19:01;6.87;;;6.33;;
9392;SDS011;4736;52.508;13.422;2023-02-28T00:22:05;5.70;;;5.40;;
9392;SDS011;4736;52.508;13.422;2023-02-28T00:25:08;6.70;;;6.10;;
9392;SDS011;4736;52.508;13.422;2023-02-28T00:28:14;6.50;;;5.90;;
9392;SDS011;4736;52.508;13.422;2023-02-28T00:31:18;6.10;;;5.60;;
9392;SDS011;4736;52.508;13.422;2023-02-28T00:34:21;8.40;;;5.80;;
9392;SDS011;4736;52.508;13.422;2023-02-28T00:37:24;6.00;;;5.60;;
9392;SDS011;4736;52.508;13.422;2023-02-28T00:40:28;5.40;;;5.17;;
9392;SDS011;4736;52.508;13.422;2023-02-28T00:43:33;7.53;;;6.73;;
9392;SDS011;4736;52.508;13.422;2023-02-28T00:46:37;6.87;;;6.20;;
9392;SDS011;4736;52.508;13.422;2023-02-28T00:49:40;6.43;;;5.93;;
9392;SDS011;4736;52.508;13.422;2023-02-28T00:52:43;6.27;;;5.70;;
9392;SDS011;4736;52.508;13.422;2023-02-28T00:55:47;6.60;;;5.97;;
9392;SDS011;4736;52.508;13.422;2023-02-28T00:58:52;6.83;;;6.20;;
9392;SDS011;4736;52.508;13.422;2023-02-28T01:01:55;6.50;;;6.10;;
9392;SDS011;4736;52.508;13.422;2023-02-28T01:04:58;6.90;;;6.40;;
9392;SDS011;4736;52.508;13.422;2023-02-28T01:08:01;6.60;;;6.20;;
9392;SDS011;4736;52.508;13.422;2023-02-28T01:11:08;6.87;;;6.40;;
9392;SDS011;4736;52.508;13.422;2023-02-28T01:14:14;7.73;;;7.07;;
9392;SDS011;4736;52.508;13.422;2023-02-28T01:17:18;7.60;;;7.00;;
9392;SDS011;4736;52.508;13.422;2023-02-28T01:20:22;6.90;;;6.50;;
9392;SDS011;4736;52.508;13.422;2023-02-28T01:23:25;6.80;;;6.27;;
9392;SDS011;4736;52.508;13.422;2023-02-28T01:26:29;7.10;;;6.50;;
9392;SDS011;4736;52.508;13.422;2023-02-28T01:29:33;6.83;;;6.23;;
9392;SDS011;4736;52.508;13.422;2023-02-28T01:32:36;8.20;;;7.50;;
9392;SDS011;4736;52.508;13.422;2023-02-28T01:35:40;7.03;;;6.43;;
9392;SDS011;4736;52.508;13.422;2023-02-28T01:38:43;7.43;;;6.73;;
9392;SDS011;4736;52.508;13.422;2023-02-28T01:41:47;8.97;;;7.17;;
9392;SDS011;4736;52.508;13.422;2023-02-28T01:44:57;7.70;;;6.90;;
9392;SDS011;4736;52.508;13.422;2023-02-28T01:48:07;6.33;;;5.90;;
9392;SDS011;4736;52.508;13.422;2023-02-28T01:51:11;7.13;;;6.60;;
9392;SDS011;4736;52.508;13.422;2023-02-28T01:54:18;8.40;;;7.57;;
9392;SDS011;4736;52.508;13.422;2023-02-28T01:57:27;7.07;;;6.60;;
9392;SDS011;4736;52.508;13.422;2023-02-28T02:00:40;7.03;;;6.43;;
9392;SDS011;4736;52.508;13.422;2023-02-28T02:03:44;6.53;;;5.93;;
9392;SDS011;4736;52.508;13.422;2023-02-28T02:06:47;7.20;;;6.70;;
9392;SDS011;4736;52.508;13.422;2023-02-28T02:09:56;7.03;;;6.53;;
9392;SDS011;4736;52.508;13.422;2023-02-28T02:16:43;6.80;;;6.40;;
9392;SDS011;4736;52.508;13.422;2023-02-28T02:23:33;6.27;;;5.87;;
9392;SDS011;4736;52.508;13.422;2023-02-28T02:27:16;6.83;;;6.43;;
9392;SDS011;4736;52.508;13.422;2023-02-28T02:30:46;6.60;;;6.20;;
9392;SDS011;4736;52.508;13.422;2023-02-28T02:34:12;7.10;;;6.63;;
9392;SDS011;4736;52.508;13.422;2023-02-28T02:37:50;6.80;;;6.30;;
9392;SDS011;4736;52.508;13.422;2023-02-28T02:41:02;7.43;;;6.83;;
9392;SDS011;4736;52.508;13.422;2023-02-28T02:44:11;7.83;;;7.17;;
9392;SDS011;4736;52.508;13.422;2023-02-28T02:47:20;7.63;;;7.03;;
9392;SDS011;4736;52.508;13.422;2023-02-28T02:50:29;8.37;;;7.10;;
9392;SDS011;4736;52.508;13.422;2023-02-28T02:53:37;7.80;;;7.20;;
9392;SDS011;4736;52.508;13.422;2023-02-28T02:56:44;7.20;;;6.63;;
9392;SDS011;4736;52.508;13.422;2023-02-28T02:59:49;7.37;;;6.77;;
9392;SDS011;4736;52.508;13.422;2023-02-28T03:02:54;6.97;;;6.47;;
9392;SDS011;4736;52.508;13.422;2023-02-28T03:06:00;7.10;;;6.60;;
9392;SDS011;4736;52.508;13.422;2023-02-28T03:09:04;7.13;;;6.63;;
9392;SDS011;4736;52.508;13.422;2023-02-28T03:12:08;6.70;;;6.30;;
9392;SDS011;4736;52.508;13.422;2023-02-28T03:15:15;6.60;;;6.20;;
9392;SDS011;4736;52.508;13.422;2023-02-28T03:18:27;7.40;;;6.70;;
9392;SDS011;4736;52.508;13.422;2023-02-28T03:21:37;7.57;;;6.93;;
9392;SDS011;4736;52.508;13.422;2023-02-28T03:24:48;7.17;;;6.53;;
9392;SDS011;4736;52.508;13.422;2023-02-28T03:27:59;7.33;;;6.67;;
9392;SDS011;4736;52.508;13.422;2023-02-28T03:31:06;8.10;;;7.50;;
9392;SDS011;4736;52.508;13.422;2023-02-28T03:34:16;7.93;;;7.17;;
9392;SDS011;4736;52.508;13.422;2023-02-28T03:37:24;8.20;;;7.50;;
9392;SDS011;4736;52.508;13.422;2023-02-28T03:40:32;8.80;;;8.00;;
9392;SDS011;4736;52.508;13.422;2023-02-28T03:43:42;10.03;;;8.40;;
9392;SDS011;4736;52.508;13.422;2023-02-28T03:46:50;7.83;;;7.13;;
9392;SDS011;4736;52.508;13.422;2023-02-28T03:50:00;8.83;;;8.00;;
9392;SDS011;4736;52.508;13.422;2023-02-28T03:53:10;8.00;;;7.50;;
9392;SDS011;4736;52.508;13.422;2023-02-28T03:56:17;8.27;;;7.57;;
9392;SDS011;4736;52.508;13.422;2023-02-28T03:59:22;8.40;;;7.63;;
9392;SDS011;4736;52.508;13.422;2023-02-28T04:02:30;8.80;;;8.10;;
9392;SDS011;4736;52.508;13.422;2023-02-28T04:05:34;8.10;;;7.50;;
9392;SDS011;4736;52.508;13.422;2023-02-28T04:08:52;7.77;;;7.20;;
9392;SDS011;4736;52.508;13.422;2023-02-28T04:11:56;8.40;;;7.80;;
9392;SDS011;4736;52.508;13.422;2023-02-28T04:14:59;7.77;;;7.17;;
9392;SDS011;4736;52.508;13.422;2023-02-28T04:18:02;7.80;;;7.30;;
9392;SDS011;4736;52.508;13.422;2023-02-28T04:21:05;7.30;;;6.80;;
9392;SDS011;4736;52.508;13.422;2023-02-28T04:24:11;7.80;;;7.30;;
9392;SDS011;4736;52.508;13.422;2023-02-28T04:27:15;7.23;;;6.73;;
9392;SDS011;4736;52.508;13.422;2023-02-28T04:30:18;7.77;;;7.17;;
9392;SDS011;4736;52.508;13.422;2023-02-28T04:33:22;7.97;;;7.27;;
9392;SDS011;4736;52.508;13.422;2023-02-28T04:36:25;8.40;;;7.80;;
9392;SDS011;4736;52.508;13.422;2023-02-28T04:39:30;7.90;;;7.23;;
9392;SDS011;4736;52.508;13.422;2023-02-28T04:42:36;7.73;;;7.13;;
9392;SDS011;4736;52.508;13.422;2023-02-28T04:45:39;7.87;;;7.20;;
9392;SDS011;4736;52.508;13.422;2023-02-28T04:48:42;8.33;;;7.47;;
9392;SDS011;4736;52.508;13.422;2023-02-28T04:51:46;8.53;;;7.90;;
9392;SDS011;4736;52.508;13.422;2023-02-28T04:54:52;8.00;;;7.27;;
9392;SDS011;4736;52.508;13.422;2023-02-28T04:57:55;9.10;;;8.20;;
9392;SDS011;4736;52.508;13.422;2023-02-28T05:01:02;8.50;;;7.80;;
9392;SDS011;4736;52.508;13.422;2023-02-28T05:04:13;8.80;;;8.07;;
9392;SDS011;4736;52.508;13.422;2023-02-28T05:07:22;9.03;;;8.23;;
9392;SDS011;4736;52.508;13.422;2023-02-28T05:10:26;9.40;;;8.60;;
9392;SDS011;4736;52.508;13.422;2023-02-28T05:13:29;8.70;;;8.00;;
9392;SDS011;4736;52.508;13.422;2023-02-28T05:16:33;7.80;;;7.20;;
9392;SDS011;4736;52.508;13.422;2023-02-28T05:19:36;8.47;;;7.80;;
9392;SDS011;4736;52.508;13.422;2023-02-28T05:22:39;8.57;;;7.80;;
9392;SDS011;4736;52.508;13.422;2023-02-28T05:25:44;8.57;;;7.67;;
9392;SDS011;4736;52.508;13.422;2023-02-28T05:28:47;8.93;;;7.97;;
9392;SDS011;4736;52.508;13.422;2023-02-28T05:31:50;9.60;;;8.63;;
9392;SDS011;4736;52.508;13.422;2023-02-28T05:34:54;9.37;;;8.50;;
9392;SDS011;4736;52.508;13.422;2023-02-28T05:37:57;9.60;;;8.63;;
9392;SDS011;4736;52.508;13.422;2023-02-28T05:41:05;9.90;;;9.00;;
9392;SDS011;4736;52.508;13.422;2023-02-28T05:44:09;10.03;;;9.03;;
9392;SDS011;4736;52.508;13.422;2023-02-28T05:47:13;9.13;;;8.37;;
9392;SDS011;4736;52.508;13.422;2023-02-28T05:50:18;9.87;;;8.97;;
9392;SDS011;4736;52.508;13.422;2023-02-28T05:53:21;9.10;;;8.27;;
9392;SDS011;4736;52.508;13.422;2023-02-28T05:56:26;10.20;;;8.93;;
9392;SDS011;4736;52.508;13.422;2023-02-28T05:59:29;9.23;;;8.43;;
9392;SDS011;4736;52.508;13.422;2023-02-28T06:02:32;9.67;;;8.40;;
9392;SDS011;4736;52.508;13.422;2023-02-28T06:05:35;8.37;;;7.67;;
9392;SDS011;4736;52.508;13.422;2023-02-28T06:08:39;10.20;;;9.13;;
9392;SDS011;4736;52.508;13.422;2023-02-28T06:11:46;8.50;;;7.90;;
9392;SDS011;4736;52.508;13.422;2023-02-28T06:14:49;10.47;;;8.37;;
9392;SDS011;4736;52.508;13.422;2023-02-28T06:17:53;10.60;;;9.60;;
9392;SDS011;4736;52.508;13.422;2023-02-28T06:20:57;9.43;;;8.47;;
9392;SDS011;4736;52.508;13.422;2023-02-28T06:24:01;9.83;;;8.83;;
9392;SDS011;4736;52.508;13.422;2023-02-28T06:27:06;9.23;;;8.37;;
9392;SDS011;4736;52.508;13.422;2023-02-28T06:30:09;8.57;;;7.90;;
9392;SDS011;4736;52.508;13.422;2023-02-28T06:33:13;8.80;;;8.10;;
9392;SDS011;4736;52.508;13.422;2023-02-28T06:36:16;10.97;;;8.77;;
9392;SDS011;4736;52.508;13.422;2023-02-28T06:39:20;8.20;;;7.50;;
9392;SDS011;4736;52.508;13.422;2023-02-28T06:42:24;9.60;;;8.63;;
9392;SDS011;4736;52.508;13.422;2023-02-28T06:45:30;8.70;;;8.00;;
9392;SDS011;4736;52.508;13.422;2023-02-28T06:48:33;8.97;;;8.17;;
9392;SDS011;4736;52.508;13.422;2023-02-28T06:51:37;10.23;;;8.47;;
9392;SDS011;4736;52.508;13.422;2023-02-28T06:54:42;8.47;;;7.77;;
9392;SDS011;4736;52.508;13.422;2023-02-28T06:57:47;8.77;;;7.90;;
9392;SDS011;4736;52.508;13.422;2023-02-28T07:00:52;8.77;;;7.80;;
9392;SDS011;4736;52.508;13.422;2023-02-28T07:03:55;9.20;;;8.20;;
9392;SDS011;4736;52.508;13.422;2023-02-28T07:06:59;8.60;;;7.70;;
9392;SDS011;4736;52.508;13.422;2023-02-28T07:10:02;10.20;;;9.30;;
9392;SDS011;4736;52.508;13.422;2023-02-28T07:13:07;9.03;;;8.27;;
9392;SDS011;4736;52.508;13.422;2023-02-28T07:16:11;9.67;;;8.77;;
9392;SDS011;4736;52.508;13.422;2023-02-28T07:19:14;9.90;;;8.23;;
9392;SDS011;4736;52.508;13.422;2023-02-28T07:22:18;8.93;;;8.23;;
9392;SDS011;4736;52.508;13.422;2023-02-28T07:25:21;8.37;;;7.80;;
9392;SDS011;4736;52.508;13.422;2023-02-28T07:28:25;9.73;;;8.83;;
9392;SDS011;4736;52.508;13.422;2023-02-28T07:31:29;9.90;;;8.93;;
9392;SDS011;4736;52.508;13.422;2023-02-28T07:34:32;9.00;;;8.30;;
9392;SDS011;4736;52.508;13.422;2023-02-28T07:37:35;9.33;;;8.43;;
9392;SDS011;4736;52.508;13.422;2023-02-28T07:40:39;13.80;;;9.63;;
9392;SDS011;4736;52.508;13.422;2023-02-28T07:43:43;10.33;;;9.37;;
9392;SDS011;4736;52.508;13.422;2023-02-28T07:46:47;12.97;;;9.67;;
9392;SDS011;4736;52.508;13.422;2023-02-28T07:49:50;10.13;;;9.13;;
9392;SDS011;4736;52.508;13.422;2023-02-28T07:52:53;8.47;;;7.77;;
9392;SDS011;4736;52.508;13.422;2023-02-28T07:55:57;9.20;;;8.30;;
9392;SDS011;4736;52.508;13.422;2023-02-28T07:59:04;10.40;;;8.80;;
9392;SDS011;4736;52.508;13.422;2023-02-28T08:02:08;10.90;;;8.67;;
9392;SDS011;4736;52.508;13.422;2023-02-28T08:05:14;8.57;;;7.70;;
9392;SDS011;4736;52.508;13.422;2023-02-28T08:08:22;8.30;;;7.57;;
9392;SDS011;4736;52.508;13.422;2023-02-28T08:11:32;7.90;;;7.27;;
9392;SDS011;4736;52.508;13.422;2023-02-28T08:14:37;8.53;;;7.60;;
9392;SDS011;4736;52.508;13.422;2023-02-28T08:17:40;7.73;;;6.60;;
9392;SDS011;4736;52.508;13.422;2023-02-28T08:20:43;7.00;;;6.50;;
9392;SDS011;4736;52.508;13.422;2023-02-28T08:23:47;6.20;;;5.80;;
9392;SDS011;4736;52.508;13.422;2023-02-28T08:26:50;6.83;;;6.17;;
9392;SDS011;4736;52.508;13.422;2023-02-28T08:29:55;4.93;;;4.73;;
9392;SDS011;4736;52.508;13.422;2023-02-28T08:32:58;5.07;;;4.73;;
9392;SDS011;4736;52.508;13.422;2023-02-28T08:36:03;5.47;;;5.17;;
9392;SDS011;4736;52.508;13.422;2023-02-28T08:39:06;5.67;;;5.27;;
9392;SDS011;4736;52.508;13.422;2023-02-28T08:42:10;5.23;;;4.93;;
9392;SDS011;4736;52.508;13.422;2023-02-28T08:45:14;4.90;;;4.63;;
9392;SDS011;4736;52.508;13.422;2023-02-28T08:48:18;4.67;;;4.47;;
9392;SDS011;4736;52.508;13.422;2023-02-28T08:51:21;4.30;;;4.20;;
9392;SDS011;4736;52.508;13.422;2023-02-28T08:54:28;5.60;;;5.30;;
9392;SDS011;4736;52.508;13.422;2023-02-28T08:57:32;5.20;;;4.90;;
9392;SDS011;4736;52.508;13.422;2023-02-28T09:00:37;4.43;;;4.23;;
9392;SDS011;4736;52.508;13.422;2023-02-28T09:03:40;3.90;;;3.70;;
9392;SDS011;4736;52.508;13.422;2023-02-28T09:06:44;4.13;;;4.03;;
9392;SDS011;4736;52.508;13.422;2023-02-28T09:09:47;4.43;;;4.23;;
9392;SDS011;4736;52.508;13.422;2023-02-28T09:12:56;5.30;;;5.00;;
9392;SDS011;4736;52.508;13.422;2023-02-28T09:16:01;4.50;;;4.40;;
9392;SDS011;4736;52.508;13.422;2023-02-28T09:19:05;4.20;;;4.10;;
9392;SDS011;4736;52.508;13.422;2023-02-28T09:22:08;3.80;;;3.50;;
9392;SDS011;4736;52.508;13.422;2023-02-28T09:25:12;4.03;;;3.93;;
9392;SDS011;4736;52.508;13.422;2023-02-28T09:28:15;4.20;;;4.10;;
9392;SDS011;4736;52.508;13.422;2023-02-28T09:31:22;3.93;;;3.73;;
9392;SDS011;4736;52.508;13.422;2023-02-28T09:34:26;5.40;;;4.60;;
9392;SDS011;4736;52.508;13.422;2023-02-28T09:37:32;4.87;;;4.53;;
9392;SDS011;4736;52.508;13.422;2023-02-28T09:40:35;3.93;;;3.83;;
9392;SDS011;4736;52.508;13.422;2023-02-28T09:43:43;4.47;;;4.20;;
9392;SDS011;4736;52.508;13.422;2023-02-28T09:46:51;5.03;;;4.83;;
9392;SDS011;4736;52.508;13.422;2023-02-28T09:50:03;4.20;;;4.10;;
9392;SDS011;4736;52.508;13.422;2023-02-28T09:53:15;4.80;;;4.50;;
9392;SDS011;4736;52.508;13.422;2023-02-28T09:56:24;4.50;;;4.40;;
9392;SDS011;4736;52.508;13.422;2023-02-28T09:59:38;4.20;;;4.10;;
9392;SDS011;4736;52.508;13.422;2023-02-28T10:02:52;4.53;;;4.33;;
9392;SDS011;4736;52.508;13.422;2023-02-28T10:06:06;4.10;;;4.00;;
9392;SDS011;4736;52.508;13.422;2023-02-28T10:09:14;4.27;;;4.10;;
9392;SDS011;4736;52.508;13.422;2023-02-28T10:12:21;4.63;;;4.33;;
9392;SDS011;4736;52.508;13.422;2023-02-28T10:15:27;4.63;;;4.23;;
9392;SDS011;4736;52.508;13.422;2023-02-28T10:18:38;5.67;;;5.27;;
9392;SDS011;4736;52.508;13.422;2023-02-28T10:21:47;5.57;;;5.07;;
9392;SDS011;4736;52.508;13.422;2023-02-28T10:24:57;4.37;;;4.27;;
9392;SDS011;4736;52.508;13.422;2023-02-28T10:28:10;4.27;;;4.17;;
9392;SDS011;4736;52.508;13.422;2023-02-28T10:31:16;5.13;;;4.83;;
9392;SDS011;4736;52.508;13.422;2023-02-28T10:34:23;4.40;;;4.20;;
9392;SDS011;4736;52.508;13.422;2023-02-28T10:37:27;5.00;;;4.70;;
9392;SDS011;4736;52.508;13.422;2023-02-28T10:40:31;5.40;;;5.00;;
9392;SDS011;4736;52.508;13.422;2023-02-28T10:43:37;5.13;;;4.80;;
9392;SDS011;4736;52.508;13.422;2023-02-28T10:46:43;4.73;;;4.47;;
9392;SDS011;4736;52.508;13.422;2023-02-28T10:49:48;4.70;;;4.40;;
9392;SDS011;4736;52.508;13.422;2023-02-28T10:52:54;6.23;;;4.63;;
9392;SDS011;4736;52.508;13.422;2023-02-28T10:55:58;4.53;;;4.33;;
9392;SDS011;4736;52.508;13.422;2023-02-28T10:59:05;5.80;;;4.43;;
9392;SDS011;4736;52.508;13.422;2023-02-28T11:02:31;4.43;;;4.33;;
9392;SDS011;4736;52.508;13.422;2023-02-28T11:05:38;4.63;;;4.43;;
9392;SDS011;4736;52.508;13.422;2023-02-28T11:08:43;4.10;;;3.93;;
9392;SDS011;4736;52.508;13.422;2023-02-28T11:11:49;3.83;;;3.73;;
9392;SDS011;4736;52.508;13.422;2023-02-28T11:14:54;4.70;;;4.40;;
9392;SDS011;4736;52.508;13.422;2023-02-28T11:18:00;4.87;;;4.67;;
9392;SDS011;4736;52.508;13.422;2023-02-28T11:21:09;5.40;;;4.93;;
9392;SDS011;4736;52.508;13.422;2023-02-28T11:24:21;4.60;;;4.40;;
9392;SDS011;4736;52.508;13.422;2023-02-28T11:27:43;5.60;;;5.00;;
9392;SDS011;4736;52.508;13.422;2023-02-28T11:30:59;5.00;;;4.70;;
9392;SDS011;4736;52.508;13.422;2023-02-28T11:37:27;5.13;;;4.53;;
9392;SDS011;4736;52.508;13.422;2023-02-28T11:40:35;5.23;;;4.70;;
9392;SDS011;4736;52.508;13.422;2023-02-28T11:43:51;5.27;;;4.87;;
9392;SDS011;4736;52.508;13.422;2023-02-28T11:47:09;5.17;;;4.97;;
9392;SDS011;4736;52.508;13.422;2023-02-28T11:50:26;4.70;;;4.50;;
9392;SDS011;4736;52.508;13.422;2023-02-28T11:57:15;5.00;;;4.77;;
9392;SDS011;4736;52.508;13.422;2023-02-28T12:00:37;5.00;;;4.63;;
9392;SDS011;4736;52.508;13.422;2023-02-28T12:03:48;5.33;;;5.10;;
9392;SDS011;4736;52.508;13.422;2023-02-28T12:07:14;5.67;;;5.20;;
9392;SDS011;4736;52.508;13.422;2023-02-28T12:10:28;5.73;;;5.33;;
9392;SDS011;4736;52.508;13.422;2023-02-28T12:13:37;5.80;;;5.47;;
9392;SDS011;4736;52.508;13.422;2023-02-28T12:16:54;5.57;;;5.37;;
9392;SDS011;4736;52.508;13.422;2023-02-28T12:20:10;4.80;;;4.57;;
9392;SDS011;4736;52.508;13.422;2023-02-28T12:23:23;6.10;;;5.50;;
9392;SDS011;4736;52.508;13.422;2023-02-28T12:26:42;5.70;;;5.37;;
9392;SDS011;4736;52.508;13.422;2023-02-28T12:29:47;4.93;;;4.60;;
9392;SDS011;4736;52.508;13.422;2023-02-28T12:32:54;5.43;;;5.10;;
9392;SDS011;4736;52.508;13.422;2023-02-28T12:36:04;5.43;;;5.07;;
9392;SDS011;4736;52.508;13.422;2023-02-28T12:39:14;5.03;;;4.73;;
9392;SDS011;4736;52.508;13.422;2023-02-28T12:42:26;4.90;;;4.70;;
9392;SDS011;4736;52.508;13.422;2023-02-28T12:45:34;4.70;;;4.40;;
9392;SDS011;4736;52.508;13.422;2023-02-28T12:48:44;4.90;;;4.63;;
9392;SDS011;4736;52.508;13.422;2023-02-28T12:51:50;5.77;;;4.40;;
9392;SDS011;4736;52.508;13.422;2023-02-28T12:54:56;4.47;;;4.27;;
9392;SDS011;4736;52.508;13.422;2023-02-28T12:58:10;5.50;;;5.17;;
9392;SDS011;4736;52.508;13.422;2023-02-28T13:01:23;4.70;;;4.50;;
9392;SDS011;4736;52.508;13.422;2023-02-28T13:04:43;4.87;;;4.67;;
9392;SDS011;4736;52.508;13.422;2023-02-28T13:08:11;4.90;;;4.50;;
9392;SDS011;4736;52.508;13.422;2023-02-28T13:11:42;5.60;;;5.20;;
9392;SDS011;4736;52.508;13.422;2023-02-28T13:14:48;4.53;;;4.33;;
9392;SDS011;4736;52.508;13.422;2023-02-28T13:17:53;4.90;;;4.53;;
9392;SDS011;4736;52.508;13.422;2023-02-28T13:20:59;4.80;;;4.60;;
9392;SDS011;4736;52.508;13.422;2023-02-28T13:24:03;5.10;;;4.73;;
9392;SDS011;4736;52.508;13.422;2023-02-28T13:34:15;5.10;;;4.90;;
9392;SDS011;4736;52.508;13.422;2023-02-28T13:37:32;5.20;;;4.97;;
9392;SDS011;4736;52.508;13.422;2023-02-28T13:40:39;4.87;;;4.53;;
9392;SDS011;4736;52.508;13.422;2023-02-28T13:44:02;5.17;;;4.80;;
9392;SDS011;4736;52.508;13.422;2023-02-28T13:47:21;4.97;;;4.77;;
9392;SDS011;4736;52.508;13.422;2023-02-28T13:50:27;6.57;;;4.83;;
9392;SDS011;4736;52.508;13.422;2023-02-28T13:53:41;4.10;;;4.00;;
9392;SDS011;4736;52.508;13.422;2023-02-28T13:57:03;5.40;;;5.10;;
9392;SDS011;4736;52.508;13.422;2023-02-28T14:00:17;5.37;;;4.97;;
9392;SDS011;4736;52.508;13.422;2023-02-28T14:03:31;5.10;;;4.70;;
9392;SDS011;4736;52.508;13.422;2023-02-28T14:06:54;5.00;;;4.60;;
9392;SDS011;4736;52.508;13.422;2023-02-28T14:10:00;4.50;;;4.20;;
9392;SDS011;4736;52.508;13.422;2023-02-28T14:13:14;4.93;;;4.57;;
9392;SDS011;4736;52.508;13.422;2023-02-28T14:16:46;4.57;;;4.17;;
9392;SDS011;4736;52.508;13.422;2023-02-28T14:19:52;4.77;;;4.47;;
9392;SDS011;4736;52.508;13.422;2023-02-28T14:22:57;5.00;;;4.70;;
9392;SDS011;4736;52.508;13.422;2023-02-28T14:26:13;5.83;;;4.90;;
9392;SDS011;4736;52.508;13.422;2023-02-28T14:29:36;4.43;;;4.33;;
9392;SDS011;4736;52.508;13.422;2023-02-28T14:33:11;5.03;;;4.73;;
9392;SDS011;4736;52.508;13.422;2023-02-28T14:36:49;5.27;;;4.87;;
9392;SDS011;4736;52.508;13.422;2023-02-28T14:39:55;4.83;;;4.63;;
9392;SDS011;4736;52.508;13.422;2023-02-28T14:43:00;4.40;;;4.20;;
9392;SDS011;4736;52.508;13.422;2023-02-28T14:46:04;5.83;;;5.10;;
9392;SDS011;4736;52.508;13.422;2023-02-28T14:49:12;4.73;;;4.53;;
9392;SDS011;4736;52.508;13.422;2023-02-28T14:52:21;4.33;;;4.23;;
9392;SDS011;4736;52.508;13.422;2023-02-28T14:55:26;5.30;;;5.10;;
9392;SDS011;4736;52.508;13.422;2023-02-28T14:58:32;6.77;;;6.00;;
9392;SDS011;4736;52.508;13.422;2023-02-28T15:01:36;5.77;;;5.47;;
9392;SDS011;4736;52.508;13.422;2023-02-28T15:04:39;5.90;;;5.40;;
9392;SDS011;4736;52.508;13.422;2023-02-28T15:07:44;5.27;;;5.03;;
9392;SDS011;4736;52.508;13.422;2023-02-28T15:10:50;5.50;;;5.20;;
9392;SDS011;4736;52.508;13.422;2023-02-28T15:13:56;4.87;;;4.57;;
9392;SDS011;4736;52.508;13.422;2023-02-28T15:17:00;4.93;;;4.73;;
9392;SDS011;4736;52.508;13.422;2023-02-28T15:20:10;5.63;;;5.10;;
9392;SDS011;4736;52.508;13.422;2023-02-28T15:23:16;5.40;;;5.20;;
9392;SDS011;4736;52.508;13.422;2023-02-28T15:26:22;5.63;;;5.20;;
9392;SDS011;4736;52.508;13.422;2023-02-28T15:29:30;5.43;;;5.13;;
9392;SDS011;4736;52.508;13.422;2023-02-28T15:32:39;5.53;;;5.33;;
9392;SDS011;4736;52.508;13.422;2023-02-28T15:35:42;5.33;;;4.93;;
9392;SDS011;4736;52.508;13.422;2023-02-28T15:38:47;5.37;;;4.93;;
9392;SDS011;4736;52.508;13.422;2023-02-28T15:45:27;5.87;;;5.57;;
9392;SDS011;4736;52.508;13.422;2023-02-28T15:48:36;5.57;;;5.17;;
9392;SDS011;4736;52.508;13.422;2023-02-28T15:51:45;5.20;;;5.00;;
9392;SDS011;4736;52.508;13.422;2023-02-28T15:54:50;5.90;;;5.60;;
9392;SDS011;4736;52.508;13.422;2023-02-28T15:57:54;5.23;;;4.93;;
9392;SDS011;4736;52.508;13.422;2023-02-28T16:01:01;5.47;;;5.17;;
9392;SDS011;4736;52.508;13.422;2023-02-28T16:04:12;5.47;;;5.17;;
9392;SDS011;4736;52.508;13.422;2023-02-28T16:07:18;5.70;;;5.30;;
9392;SDS011;4736;52.508;13.422;2023-02-28T16:10:23;7.00;;;6.50;;
9392;SDS011;4736;52.508;13.422;2023-02-28T16:13:28;5.50;;;5.20;;
9392;SDS011;4736;52.508;13.422;2023-02-28T16:16:31;5.97;;;5.67;;
9392;SDS011;4736;52.508;13.422;2023-02-28T16:19:36;6.10;;;5.70;;
9392;SDS011;4736;52.508;13.422;2023-02-28T16:22:39;5.60;;;5.40;;
9392;SDS011;4736;52.508;13.422;2023-02-28T16:25:44;6.13;;;5.53;;
9392;SDS011;4736;52.508;13.422;2023-02-28T16:28:48;6.00;;;5.70;;
9392;SDS011;4736;52.508;13.422;2023-02-28T16:31:52;5.40;;;5.10;;
9392;SDS011;4736;52.508;13.422;2023-02-28T16:34:55;5.87;;;5.50;;
9392;SDS011;4736;52.508;13.422;2023-02-28T16:37:58;7.00;;;6.50;;
9392;SDS011;4736;52.508;13.422;2023-02-28T16:41:03;7.40;;;6.73;;
9392;SDS011;4736;52.508;13.422;2023-02-28T16:44:09;6.37;;;6.03;;
9392;SDS011;4736;52.508;13.422;2023-02-28T16:47:17;6.53;;;6.07;;
9392;SDS011;4736;52.508;13.422;2023-02-28T16:50:21;5.90;;;5.60;;
9392;SDS011;4736;52.508;13.422;2023-02-28T16:53:25;6.43;;;6.03;;
9392;SDS011;4736;52.508;13.422;2023-02-28T16:56:30;6.73;;;6.33;;
9392;SDS011;4736;52.508;13.422;2023-02-28T16:59:33;7.30;;;6.73;;
9392;SDS011;4736;52.508;13.422;2023-02-28T17:02:36;6.40;;;5.90;;
9392;SDS011;4736;52.508;13.422;2023-02-28T17:05:43;7.70;;;6.37;;
9392;SDS011;4736;52.508;13.422;2023-02-28T17:08:47;6.90;;;6.17;;
9392;SDS011;4736;52.508;13.422;2023-02-28T17:11:51;6.50;;;6.10;;
9392;SDS011;4736;52.508;13.422;2023-02-28T17:14:54;8.83;;;7.93;;
9392;SDS011;4736;52.508;13.422;2023-02-28T17:17:57;7.40;;;6.80;;
9392;SDS011;4736;52.508;13.422;2023-02-28T17:21:00;8.40;;;7.67;;
9392;SDS011;4736;52.508;13.422;2023-02-28T17:24:04;8.47;;;7.63;;
9392;SDS011;4736;52.508;13.422;2023-02-28T17:27:10;7.77;;;7.17;;
9392;SDS011;4736;52.508;13.422;2023-02-28T17:30:15;8.07;;;7.33;;
9392;SDS011;4736;52.508;13.422;2023-02-28T17:33:20;8.20;;;7.50;;
9392;SDS011;4736;52.508;13.422;2023-02-28T17:36:24;8.00;;;7.40;;
9392;SDS011;4736;52.508;13.422;2023-02-28T17:39:29;8.73;;;7.97;;
9392;SDS011;4736;52.508;13.422;2023-02-28T17:42:33;8.03;;;7.50;;
9392;SDS011;4736;52.508;13.422;2023-02-28T17:45:36;7.17;;;6.77;;
9392;SDS011;4736;52.508;13.422;2023-02-28T17:48:39;7.20;;;6.70;;
9392;SDS011;4736;52.508;13.422;2023-02-28T17:51:42;7.43;;;6.83;;
9392;SDS011;4736;52.508;13.422;2023-02-28T17:54:45;8.40;;;6.77;;
9392;SDS011;4736;52.508;13.422;2023-02-28T17:57:50;6.63;;;6.33;;
9392;SDS011;4736;52.508;13.422;2023-02-28T18:00:53;7.30;;;6.80;;
9392;SDS011;4736;52.508;13.422;2023-02-28T18:03:56;8.00;;;7.40;;
9392;SDS011;4736;52.508;13.422;2023-02-28T18:06:59;7.83;;;7.13;;
9392;SDS011;4736;52.508;13.422;2023-02-28T18:10:03;8.50;;;7.87;;
9392;SDS011;4736;52.508;13.422;2023-02-28T18:13:08;7.97;;;7.30;;
9392;SDS011;4736;52.508;13.422;2023-02-28T18:16:13;8.43;;;7.73;;
9392;SDS011;4736;52.508;13.422;2023-02-28T18:19:17;9.70;;;8.57;;
9392;SDS011;4736;52.508;13.422;2023-02-28T18:22:22;8.53;;;7.83;;
9392;SDS011;4736;52.508;13.422;2023-02-28T18:25:25;10.93;;;8.97;;
9392;SDS011;4736;52.508;13.422;2023-02-28T18:28:29;9.70;;;8.80;;
9392;SDS011;4736;52.508;13.422;2023-02-28T18:31:34;9.07;;;8.20;;
9392;SDS011;4736;52.508;13.422;2023-02-28T18:34:38;9.20;;;8.30;;
9392;SDS011;4736;52.508;13.422;2023-02-28T18:37:41;8.13;;;7.43;;
9392;SDS011;4736;52.508;13.422;2023-02-28T18:40:49;8.57;;;7.50;;
9392;SDS011;4736;52.508;13.422;2023-02-28T18:43:56;8.10;;;7.50;;
9392;SDS011;4736;52.508;13.422;2023-02-28T18:47:14;8.07;;;7.37;;
9392;SDS011;4736;52.508;13.422;2023-02-28T18:50:17;8.33;;;7.67;;
9392;SDS011;4736;52.508;13.422;2023-02-28T18:53:20;8.90;;;8.10;;
9392;SDS011;4736;52.508;13.422;2023-02-28T18:56:24;9.47;;;8.70;;
9392;SDS011;4736;52.508;13.422;2023-02-28T18:59:30;10.20;;;9.20;;
9392;SDS011;4736;52.508;13.422;2023-02-28T19:02:33;9.67;;;8.83;;
9392;SDS011;4736;52.508;13.422;2023-02-28T19:05:38;12.23;;;9.70;;
9392;SDS011;4736;52.508;13.422;2023-02-28T19:08:41;11.20;;;9.77;;
9392;SDS011;4736;52.508;13.422;2023-02-28T19:11:44;10.80;;;9.70;;
9392;SDS011;4736;52.508;13.422;2023-02-28T19:14:49;9.93;;;9.07;;
9392;SDS011;4736;52.508;13.422;2023-02-28T19:17:53;9.67;;;8.77;;
9392;SDS011;4736;52.508;13.422;2023-02-28T19:20:56;11.23;;;9.07;;
9392;SDS011;4736;52.508;13.422;2023-02-28T19:24:00;11.10;;;10.10;;
9392;SDS011;4736;52.508;13.422;2023-02-28T19:27:04;10.93;;;8.93;;